Weather at Kotabangun Airport

Public forecast

Using degrees Celsius for public forecast. Weather courtesy of forecast.io.

Closest aviation weather report (METAR) to Kotabangun Airport

Closest report is Sultan Aji Muhammad Sulaiman Sepinggan International Airport, 63.0 nm (116.6 km) SSE.

2024/07/17 13:00 (retrieved 38 minutes ago)

WALL 171300Z 29002KT 9000 SCT018 27/24 Q1010 NOSIG

Closest aviation forecast (TAF) to Kotabangun Airport

Closest forecast is Aji Pangeran Tumenggung Pranoto International Airport, 40.6 nm (75.1 km) E.

2024/07/17 12:00 (retrieved 2 hours ago)

TAF WALL 171100Z 1712/1818 18003KT 9999 FEW020 TAF WALS 171100Z 1712/1724 17004KT 9999 SCT020